sensor_id;sensor_type;location;lat;lon;timestamp;P1;durP1;ratioP1;P2;durP2;ratioP2
38427;SDS011;24211;49.980;19.776;2024-03-23T00:55:54;19.70;;;9.95;;
38427;SDS011;24211;49.980;19.776;2024-03-23T00:58:21;21.23;;;9.50;;
38427;SDS011;24211;49.980;19.776;2024-03-23T01:00:47;22.15;;;9.75;;
38427;SDS011;24211;49.980;19.776;2024-03-23T01:03:13;20.08;;;9.63;;
38427;SDS011;24211;49.980;19.776;2024-03-23T01:05:39;19.33;;;9.95;;
38427;SDS011;24211;49.980;19.776;2024-03-23T01:08:06;19.40;;;9.65;;
38427;SDS011;24211;49.980;19.776;2024-03-23T01:10:32;18.92;;;9.50;;
38427;SDS011;24211;49.980;19.776;2024-03-23T01:12:59;20.88;;;9.82;;
38427;SDS011;24211;49.980;19.776;2024-03-23T01:15:25;18.58;;;9.93;;
38427;SDS011;24211;49.980;19.776;2024-03-23T01:17:51;19.08;;;9.15;;
38427;SDS011;24211;49.980;19.776;2024-03-23T01:20:17;19.60;;;9.60;;
38427;SDS011;24211;49.980;19.776;2024-03-23T01:22:44;20.65;;;10.48;;
38427;SDS011;24211;49.980;19.776;2024-03-23T01:25:10;21.35;;;9.82;;
38427;SDS011;24211;49.980;19.776;2024-03-23T01:27:36;19.20;;;9.95;;
38427;SDS011;24211;49.980;19.776;2024-03-23T01:30:03;21.02;;;9.43;;
38427;SDS011;24211;49.980;19.776;2024-03-23T01:32:29;19.80;;;9.82;;
38427;SDS011;24211;49.980;19.776;2024-03-23T01:34:55;19.40;;;9.90;;
38427;SDS011;24211;49.980;19.776;2024-03-23T01:37:22;20.30;;;10.05;;
38427;SDS011;24211;49.980;19.776;2024-03-23T01:39:48;18.02;;;9.57;;
38427;SDS011;24211;49.980;19.776;2024-03-23T01:42:14;19.77;;;9.48;;
38427;SDS011;24211;49.980;19.776;2024-03-23T01:44:40;17.73;;;9.82;;
38427;SDS011;24211;49.980;19.776;2024-03-23T01:47:07;18.98;;;9.95;;
38427;SDS011;24211;49.980;19.776;2024-03-23T01:49:33;19.10;;;9.65;;
38427;SDS011;24211;49.980;19.776;2024-03-23T01:52:00;19.77;;;10.10;;
38427;SDS011;24211;49.980;19.776;2024-03-23T01:54:27;22.95;;;10.82;;
38427;SDS011;24211;49.980;19.776;2024-03-23T01:56:55;24.52;;;11.82;;
38427;SDS011;24211;49.980;19.776;2024-03-23T01:59:22;23.75;;;12.15;;
38427;SDS011;24211;49.980;19.776;2024-03-23T02:01:49;25.77;;;13.13;;
38427;SDS011;24211;49.980;19.776;2024-03-23T02:04:16;25.20;;;13.30;;
38427;SDS011;24211;49.980;19.776;2024-03-23T02:06:42;25.20;;;12.82;;
38427;SDS011;24211;49.980;19.776;2024-03-23T02:09:08;24.42;;;12.77;;
38427;SDS011;24211;49.980;19.776;2024-03-23T02:11:35;25.52;;;12.20;;
38427;SDS011;24211;49.980;19.776;2024-03-23T02:14:01;24.63;;;12.43;;
38427;SDS011;24211;49.980;19.776;2024-03-23T02:16:27;22.70;;;11.70;;
38427;SDS011;24211;49.980;19.776;2024-03-23T02:18:53;24.92;;;11.48;;
38427;SDS011;24211;49.980;19.776;2024-03-23T02:21:20;22.92;;;11.68;;
38427;SDS011;24211;49.980;19.776;2024-03-23T02:23:46;26.35;;;12.20;;
38427;SDS011;24211;49.980;19.776;2024-03-23T02:26:12;21.98;;;11.85;;
38427;SDS011;24211;49.980;19.776;2024-03-23T02:28:40;23.67;;;12.35;;
38427;SDS011;24211;49.980;19.776;2024-03-23T02:31:07;20.00;;;11.10;;
38427;SDS011;24211;49.980;19.776;2024-03-23T02:33:33;24.05;;;11.50;;
38427;SDS011;24211;49.980;19.776;2024-03-23T02:36:00;21.90;;;11.32;;
38427;SDS011;24211;49.980;19.776;2024-03-23T02:38:26;22.17;;;11.55;;
38427;SDS011;24211;49.980;19.776;2024-03-23T02:40:53;26.65;;;13.90;;
38427;SDS011;24211;49.980;19.776;2024-03-23T02:43:19;23.98;;;12.32;;
38427;SDS011;24211;49.980;19.776;2024-03-23T02:45:45;22.63;;;11.60;;
38427;SDS011;24211;49.980;19.776;2024-03-23T02:48:12;22.48;;;11.55;;
38427;SDS011;24211;49.980;19.776;2024-03-23T02:50:38;19.23;;;10.82;;
38427;SDS011;24211;49.980;19.776;2024-03-23T02:53:04;19.35;;;10.77;;
38427;SDS011;24211;49.980;19.776;2024-03-23T02:55:31;19.58;;;10.18;;
38427;SDS011;24211;49.980;19.776;2024-03-23T02:57:57;19.35;;;10.07;;
38427;SDS011;24211;49.980;19.776;2024-03-23T03:00:28;19.50;;;10.00;;
38427;SDS011;24211;49.980;19.776;2024-03-23T03:02:54;19.10;;;10.70;;
38427;SDS011;24211;49.980;19.776;2024-03-23T03:05:21;20.20;;;9.88;;
38427;SDS011;24211;49.980;19.776;2024-03-23T03:07:47;17.98;;;9.82;;
38427;SDS011;24211;49.980;19.776;2024-03-23T03:10:13;19.63;;;9.93;;
38427;SDS011;24211;49.980;19.776;2024-03-23T03:12:40;19.50;;;9.70;;
38427;SDS011;24211;49.980;19.776;2024-03-23T03:15:07;20.75;;;10.43;;
38427;SDS011;24211;49.980;19.776;2024-03-23T03:17:35;21.15;;;9.68;;
38427;SDS011;24211;49.980;19.776;2024-03-23T03:20:01;18.30;;;9.25;;
38427;SDS011;24211;49.980;19.776;2024-03-23T03:22:28;17.92;;;9.18;;
38427;SDS011;24211;49.980;19.776;2024-03-23T03:24:54;19.63;;;9.70;;
38427;SDS011;24211;49.980;19.776;2024-03-23T03:27:21;19.60;;;9.73;;
38427;SDS011;24211;49.980;19.776;2024-03-23T03:29:48;17.92;;;9.57;;
38427;SDS011;24211;49.980;19.776;2024-03-23T03:32:14;15.90;;;9.15;;
38427;SDS011;24211;49.980;19.776;2024-03-23T03:34:40;18.48;;;9.70;;
38427;SDS011;24211;49.980;19.776;2024-03-23T03:37:06;17.38;;;9.32;;
38427;SDS011;24211;49.980;19.776;2024-03-23T03:39:33;18.73;;;9.40;;
38427;SDS011;24211;49.980;19.776;2024-03-23T03:41:59;17.23;;;8.77;;
38427;SDS011;24211;49.980;19.776;2024-03-23T03:44:27;19.25;;;9.35;;
38427;SDS011;24211;49.980;19.776;2024-03-23T03:46:53;17.17;;;9.25;;
38427;SDS011;24211;49.980;19.776;2024-03-23T03:49:19;20.70;;;9.65;;
38427;SDS011;24211;49.980;19.776;2024-03-23T03:51:46;19.42;;;9.77;;
38427;SDS011;24211;49.980;19.776;2024-03-23T03:54:12;20.13;;;10.02;;
38427;SDS011;24211;49.980;19.776;2024-03-23T03:56:38;17.77;;;9.75;;
38427;SDS011;24211;49.980;19.776;2024-03-23T03:59:05;17.02;;;9.27;;
38427;SDS011;24211;49.980;19.776;2024-03-23T04:01:34;18.35;;;9.30;;
38427;SDS011;24211;49.980;19.776;2024-03-23T04:04:01;20.02;;;10.07;;
38427;SDS011;24211;49.980;19.776;2024-03-23T04:06:27;18.90;;;9.40;;
38427;SDS011;24211;49.980;19.776;2024-03-23T04:08:54;18.38;;;9.38;;
38427;SDS011;24211;49.980;19.776;2024-03-23T04:11:20;18.33;;;9.45;;
38427;SDS011;24211;49.980;19.776;2024-03-23T04:13:46;17.90;;;9.00;;
38427;SDS011;24211;49.980;19.776;2024-03-23T04:16:14;17.48;;;9.27;;
38427;SDS011;24211;49.980;19.776;2024-03-23T04:18:52;18.98;;;10.57;;
38427;SDS011;24211;49.980;19.776;2024-03-23T04:21:18;19.38;;;9.60;;
38427;SDS011;24211;49.980;19.776;2024-03-23T04:23:45;18.38;;;9.95;;
38427;SDS011;24211;49.980;19.776;2024-03-23T04:26:11;19.27;;;9.68;;
38427;SDS011;24211;49.980;19.776;2024-03-23T04:28:38;21.23;;;11.55;;
38427;SDS011;24211;49.980;19.776;2024-03-23T04:31:04;18.73;;;9.85;;
38427;SDS011;24211;49.980;19.776;2024-03-23T04:33:31;22.83;;;10.60;;
38427;SDS011;24211;49.980;19.776;2024-03-23T04:35:57;19.23;;;10.20;;
38427;SDS011;24211;49.980;19.776;2024-03-23T04:38:23;22.95;;;11.25;;
38427;SDS011;24211;49.980;19.776;2024-03-23T04:40:56;20.48;;;11.07;;
38427;SDS011;24211;49.980;19.776;2024-03-23T04:43:28;20.02;;;10.57;;
38427;SDS011;24211;49.980;19.776;2024-03-23T04:45:54;19.85;;;10.82;;
38427;SDS011;24211;49.980;19.776;2024-03-23T04:48:21;21.40;;;11.10;;
38427;SDS011;24211;49.980;19.776;2024-03-23T04:50:48;21.85;;;10.45;;
38427;SDS011;24211;49.980;19.776;2024-03-23T04:53:19;20.42;;;10.98;;
38427;SDS011;24211;49.980;19.776;2024-03-23T04:55:46;20.73;;;11.18;;
38427;SDS011;24211;49.980;19.776;2024-03-23T04:58:12;22.75;;;11.68;;
38427;SDS011;24211;49.980;19.776;2024-03-23T05:00:38;23.90;;;11.70;;
38427;SDS011;24211;49.980;19.776;2024-03-23T05:03:04;22.00;;;11.40;;
38427;SDS011;24211;49.980;19.776;2024-03-23T05:05:31;21.45;;;10.77;;
38427;SDS011;24211;49.980;19.776;2024-03-23T05:07:57;21.30;;;11.48;;
38427;SDS011;24211;49.980;19.776;2024-03-23T05:10:23;22.08;;;10.88;;
38427;SDS011;24211;49.980;19.776;2024-03-23T05:12:50;23.95;;;12.02;;
38427;SDS011;24211;49.980;19.776;2024-03-23T05:15:17;20.70;;;11.00;;
38427;SDS011;24211;49.980;19.776;2024-03-23T05:17:43;20.38;;;10.90;;
38427;SDS011;24211;49.980;19.776;2024-03-23T05:20:10;21.33;;;10.90;;
38427;SDS011;24211;49.980;19.776;2024-03-23T05:22:38;22.27;;;11.32;;
38427;SDS011;24211;49.980;19.776;2024-03-23T05:25:06;19.35;;;10.73;;
38427;SDS011;24211;49.980;19.776;2024-03-23T05:27:33;22.63;;;11.80;;
38427;SDS011;24211;49.980;19.776;2024-03-23T05:29:59;22.38;;;11.85;;
38427;SDS011;24211;49.980;19.776;2024-03-23T05:32:25;22.27;;;12.10;;
38427;SDS011;24211;49.980;19.776;2024-03-23T05:34:51;23.25;;;11.35;;
38427;SDS011;24211;49.980;19.776;2024-03-23T05:37:22;23.73;;;11.75;;
38427;SDS011;24211;49.980;19.776;2024-03-23T05:39:49;21.40;;;11.00;;
38427;SDS011;24211;49.980;19.776;2024-03-23T05:42:19;24.00;;;11.70;;
38427;SDS011;24211;49.980;19.776;2024-03-23T05:44:45;23.88;;;12.40;;
38427;SDS011;24211;49.980;19.776;2024-03-23T05:47:12;23.42;;;12.00;;
38427;SDS011;24211;49.980;19.776;2024-03-23T05:49:40;21.75;;;11.35;;
38427;SDS011;24211;49.980;19.776;2024-03-23T05:52:09;22.13;;;11.32;;
38427;SDS011;24211;49.980;19.776;2024-03-23T05:54:36;21.77;;;11.50;;
38427;SDS011;24211;49.980;19.776;2024-03-23T05:57:03;25.23;;;12.98;;
38427;SDS011;24211;49.980;19.776;2024-03-23T05:59:30;23.27;;;12.57;;
38427;SDS011;24211;49.980;19.776;2024-03-23T06:01:56;23.38;;;12.15;;
38427;SDS011;24211;49.980;19.776;2024-03-23T06:04:23;23.00;;;11.98;;
38427;SDS011;24211;49.980;19.776;2024-03-23T06:06:50;25.00;;;13.10;;
38427;SDS011;24211;49.980;19.776;2024-03-23T06:09:18;28.25;;;14.20;;
38427;SDS011;24211;49.980;19.776;2024-03-23T06:11:48;31.52;;;16.70;;
38427;SDS011;24211;49.980;19.776;2024-03-23T06:14:14;36.13;;;18.88;;
38427;SDS011;24211;49.980;19.776;2024-03-23T06:16:40;28.75;;;16.15;;
38427;SDS011;24211;49.980;19.776;2024-03-23T06:19:07;54.42;;;27.08;;
38427;SDS011;24211;49.980;19.776;2024-03-23T06:21:33;41.00;;;21.17;;
38427;SDS011;24211;49.980;19.776;2024-03-23T06:23:59;36.92;;;19.20;;
38427;SDS011;24211;49.980;19.776;2024-03-23T06:26:26;39.85;;;19.60;;
38427;SDS011;24211;49.980;19.776;2024-03-23T06:28:52;35.70;;;18.40;;
38427;SDS011;24211;49.980;19.776;2024-03-23T06:31:18;57.97;;;28.38;;
38427;SDS011;24211;49.980;19.776;2024-03-23T06:33:44;34.30;;;18.08;;
38427;SDS011;24211;49.980;19.776;2024-03-23T06:36:11;33.95;;;17.48;;
38427;SDS011;24211;49.980;19.776;2024-03-23T06:38:37;35.13;;;17.08;;
38427;SDS011;24211;49.980;19.776;2024-03-23T06:41:07;33.28;;;16.73;;
38427;SDS011;24211;49.980;19.776;2024-03-23T06:43:34;32.15;;;16.60;;
38427;SDS011;24211;49.980;19.776;2024-03-23T06:46:01;30.10;;;15.80;;
38427;SDS011;24211;49.980;19.776;2024-03-23T06:48:29;28.38;;;15.45;;
38427;SDS011;24211;49.980;19.776;2024-03-23T06:50:56;31.05;;;15.95;;
38427;SDS011;24211;49.980;19.776;2024-03-23T06:53:23;29.33;;;15.35;;
38427;SDS011;24211;49.980;19.776;2024-03-23T06:55:52;28.70;;;15.05;;
38427;SDS011;24211;49.980;19.776;2024-03-23T06:58:20;32.78;;;16.48;;
38427;SDS011;24211;49.980;19.776;2024-03-23T07:00:48;33.33;;;16.70;;
38427;SDS011;24211;49.980;19.776;2024-03-23T07:03:14;35.50;;;16.90;;
38427;SDS011;24211;49.980;19.776;2024-03-23T07:05:46;32.58;;;16.45;;
38427;SDS011;24211;49.980;19.776;2024-03-23T07:08:12;31.75;;;16.48;;
38427;SDS011;24211;49.980;19.776;2024-03-23T07:10:44;30.42;;;15.02;;
38427;SDS011;24211;49.980;19.776;2024-03-23T07:13:10;31.30;;;16.40;;
38427;SDS011;24211;49.980;19.776;2024-03-23T07:15:37;32.25;;;17.63;;
38427;SDS011;24211;49.980;19.776;2024-03-23T07:18:03;32.88;;;17.65;;
38427;SDS011;24211;49.980;19.776;2024-03-23T07:20:29;32.30;;;18.13;;
38427;SDS011;24211;49.980;19.776;2024-03-23T07:22:57;30.55;;;16.20;;
38427;SDS011;24211;49.980;19.776;2024-03-23T07:25:23;49.67;;;24.40;;
38427;SDS011;24211;49.980;19.776;2024-03-23T07:27:50;32.22;;;16.60;;
38427;SDS011;24211;49.980;19.776;2024-03-23T07:30:19;29.67;;;16.10;;
38427;SDS011;24211;49.980;19.776;2024-03-23T07:32:45;32.03;;;16.80;;
38427;SDS011;24211;49.980;19.776;2024-03-23T07:35:12;27.17;;;15.48;;
38427;SDS011;24211;49.980;19.776;2024-03-23T07:37:38;32.85;;;16.73;;
38427;SDS011;24211;49.980;19.776;2024-03-23T07:40:05;31.80;;;16.98;;
38427;SDS011;24211;49.980;19.776;2024-03-23T07:42:32;32.40;;;16.98;;
38427;SDS011;24211;49.980;19.776;2024-03-23T07:44:58;30.02;;;16.50;;
38427;SDS011;24211;49.980;19.776;2024-03-23T07:47:24;28.48;;;15.65;;
38427;SDS011;24211;49.980;19.776;2024-03-23T07:49:50;30.35;;;15.32;;
38427;SDS011;24211;49.980;19.776;2024-03-23T07:52:17;27.38;;;15.23;;
38427;SDS011;24211;49.980;19.776;2024-03-23T07:54:44;31.13;;;16.65;;
38427;SDS011;24211;49.980;19.776;2024-03-23T07:57:10;39.08;;;21.95;;
38427;SDS011;24211;49.980;19.776;2024-03-23T07:59:37;35.42;;;20.10;;
38427;SDS011;24211;49.980;19.776;2024-03-23T08:02:03;48.60;;;26.05;;
38427;SDS011;24211;49.980;19.776;2024-03-23T08:04:30;48.95;;;25.83;;
38427;SDS011;24211;49.980;19.776;2024-03-23T08:06:57;38.25;;;19.73;;
38427;SDS011;24211;49.980;19.776;2024-03-23T08:09:23;36.50;;;19.55;;
38427;SDS011;24211;49.980;19.776;2024-03-23T08:11:49;39.72;;;20.75;;
38427;SDS011;24211;49.980;19.776;2024-03-23T08:14:15;33.05;;;18.10;;
38427;SDS011;24211;49.980;19.776;2024-03-23T08:16:41;30.83;;;17.45;;
38427;SDS011;24211;49.980;19.776;2024-03-23T08:21:41;28.85;;;15.90;;
38427;SDS011;24211;49.980;19.776;2024-03-23T08:24:08;29.35;;;16.17;;
38427;SDS011;24211;49.980;19.776;2024-03-23T08:26:35;30.27;;;15.43;;
38427;SDS011;24211;49.980;19.776;2024-03-23T08:29:03;25.08;;;14.38;;
38427;SDS011;24211;49.980;19.776;2024-03-23T08:31:30;26.08;;;14.23;;
38427;SDS011;24211;49.980;19.776;2024-03-23T08:33:57;31.33;;;15.48;;
38427;SDS011;24211;49.980;19.776;2024-03-23T08:36:24;27.67;;;15.13;;
38427;SDS011;24211;49.980;19.776;2024-03-23T08:38:50;27.38;;;15.13;;
38427;SDS011;24211;49.980;19.776;2024-03-23T08:41:19;27.80;;;14.65;;
38427;SDS011;24211;49.980;19.776;2024-03-23T08:43:46;29.42;;;14.27;;
38427;SDS011;24211;49.980;19.776;2024-03-23T08:46:12;28.50;;;14.57;;
38427;SDS011;24211;49.980;19.776;2024-03-23T08:48:43;25.02;;;13.35;;
38427;SDS011;24211;49.980;19.776;2024-03-23T08:51:12;23.23;;;12.13;;
38427;SDS011;24211;49.980;19.776;2024-03-23T08:53:41;20.45;;;11.85;;
38427;SDS011;24211;49.980;19.776;2024-03-23T08:56:08;21.23;;;11.43;;
38427;SDS011;24211;49.980;19.776;2024-03-23T08:58:37;20.88;;;10.88;;
38427;SDS011;24211;49.980;19.776;2024-03-23T09:03:36;20.85;;;10.50;;
38427;SDS011;24211;49.980;19.776;2024-03-23T09:06:06;19.73;;;10.20;;
38427;SDS011;24211;49.980;19.776;2024-03-23T09:08:35;18.83;;;10.20;;
38427;SDS011;24211;49.980;19.776;2024-03-23T09:11:05;18.55;;;9.57;;
38427;SDS011;24211;49.980;19.776;2024-03-23T09:13:33;20.85;;;10.20;;
38427;SDS011;24211;49.980;19.776;2024-03-23T09:16:01;17.15;;;9.90;;
38427;SDS011;24211;49.980;19.776;2024-03-23T09:18:30;18.23;;;9.82;;
38427;SDS011;24211;49.980;19.776;2024-03-23T09:21:02;17.02;;;9.38;;
38427;SDS011;24211;49.980;19.776;2024-03-23T09:23:30;17.45;;;9.45;;
38427;SDS011;24211;49.980;19.776;2024-03-23T09:25:56;18.05;;;9.82;;
38427;SDS011;24211;49.980;19.776;2024-03-23T09:28:22;17.85;;;9.63;;
38427;SDS011;24211;49.980;19.776;2024-03-23T09:30:48;16.98;;;8.88;;
38427;SDS011;24211;49.980;19.776;2024-03-23T09:33:15;16.48;;;9.10;;
38427;SDS011;24211;49.980;19.776;2024-03-23T09:35:42;20.83;;;11.05;;
38427;SDS011;24211;49.980;19.776;2024-03-23T09:38:10;16.33;;;9.23;;
38427;SDS011;24211;49.980;19.776;2024-03-23T09:40:40;17.17;;;9.65;;
38427;SDS011;24211;49.980;19.776;2024-03-23T09:43:08;18.10;;;9.98;;
38427;SDS011;24211;49.980;19.776;2024-03-23T09:45:36;17.20;;;9.00;;
38427;SDS011;24211;49.980;19.776;2024-03-23T09:48:08;16.63;;;9.35;;
38427;SDS011;24211;49.980;19.776;2024-03-23T09:50:36;16.90;;;9.77;;
38427;SDS011;24211;49.980;19.776;2024-03-23T09:53:07;17.70;;;9.77;;
38427;SDS011;24211;49.980;19.776;2024-03-23T09:55:37;15.25;;;8.38;;
38427;SDS011;24211;49.980;19.776;2024-03-23T09:58:05;12.77;;;7.50;;
38427;SDS011;24211;49.980;19.776;2024-03-23T10:00:32;13.93;;;7.95;;
38427;SDS011;24211;49.980;19.776;2024-03-23T10:03:00;12.82;;;7.03;;
38427;SDS011;24211;49.980;19.776;2024-03-23T10:05:28;12.57;;;6.47;;
38427;SDS011;24211;49.980;19.776;2024-03-23T10:07:57;10.35;;;5.00;;
38427;SDS011;24211;49.980;19.776;2024-03-23T10:10:24;7.68;;;3.95;;
38427;SDS011;24211;49.980;19.776;2024-03-23T10:12:52;7.03;;;3.30;;
38427;SDS011;24211;49.980;19.776;2024-03-23T10:15:18;5.95;;;2.92;;
38427;SDS011;24211;49.980;19.776;2024-03-23T10:17:48;7.45;;;2.80;;
38427;SDS011;24211;49.980;19.776;2024-03-23T10:20:23;5.32;;;2.40;;
38427;SDS011;24211;49.980;19.776;2024-03-23T10:22:50;5.00;;;2.78;;
38427;SDS011;24211;49.980;19.776;2024-03-23T10:25:17;5.43;;;2.50;;
38427;SDS011;24211;49.980;19.776;2024-03-23T10:27:58;5.10;;;2.65;;
38427;SDS011;24211;49.980;19.776;2024-03-23T10:30:26;5.13;;;2.75;;
38427;SDS011;24211;49.980;19.776;2024-03-23T10:33:07;5.32;;;2.47;;
38427;SDS011;24211;49.980;19.776;2024-03-23T10:35:37;5.60;;;2.63;;
38427;SDS011;24211;49.980;19.776;2024-03-23T10:38:05;5.68;;;2.65;;
38427;SDS011;24211;49.980;19.776;2024-03-23T10:40:37;4.90;;;2.20;;
38427;SDS011;24211;49.980;19.776;2024-03-23T10:43:05;6.57;;;2.75;;
38427;SDS011;24211;49.980;19.776;2024-03-23T10:45:33;4.78;;;2.30;;
38427;SDS011;24211;49.980;19.776;2024-03-23T10:48:00;4.32;;;2.10;;
38427;SDS011;24211;49.980;19.776;2024-03-23T10:50:28;4.60;;;2.60;;
38427;SDS011;24211;49.980;19.776;2024-03-23T10:52:54;6.05;;;2.50;;
38427;SDS011;24211;49.980;19.776;2024-03-23T10:55:25;4.05;;;2.22;;
38427;SDS011;24211;49.980;19.776;2024-03-23T10:57:57;5.15;;;2.40;;
38427;SDS011;24211;49.980;19.776;2024-03-23T11:00:26;5.80;;;2.30;;
38427;SDS011;24211;49.980;19.776;2024-03-23T11:02:52;5.10;;;2.70;;
38427;SDS011;24211;49.980;19.776;2024-03-23T11:07:52;5.43;;;2.33;;
38427;SDS011;24211;49.980;19.776;2024-03-23T11:10:26;4.63;;;2.30;;
38427;SDS011;24211;49.980;19.776;2024-03-23T11:15:48;4.38;;;2.40;;
38427;SDS011;24211;49.980;19.776;2024-03-23T11:18:20;5.53;;;2.80;;
38427;SDS011;24211;49.980;19.776;2024-03-23T11:20:47;5.15;;;2.70;;
38427;SDS011;24211;49.980;19.776;2024-03-23T11:23:26;4.97;;;2.50;;
38427;SDS011;24211;49.980;19.776;2024-03-23T11:25:54;5.57;;;2.60;;
38427;SDS011;24211;49.980;19.776;2024-03-23T11:28:21;5.43;;;2.58;;
38427;SDS011;24211;49.980;19.776;2024-03-23T11:30:47;6.57;;;2.38;;
38427;SDS011;24211;49.980;19.776;2024-03-23T11:33:14;5.40;;;2.33;;
38427;SDS011;24211;49.980;19.776;2024-03-23T11:35:41;5.57;;;2.22;;
38427;SDS011;24211;49.980;19.776;2024-03-23T11:38:09;5.57;;;2.20;;
38427;SDS011;24211;49.980;19.776;2024-03-23T11:40:38;4.15;;;2.33;;
38427;SDS011;24211;49.980;19.776;2024-03-23T11:43:11;4.15;;;2.30;;
38427;SDS011;24211;49.980;19.776;2024-03-23T11:45:50;6.07;;;2.30;;
38427;SDS011;24211;49.980;19.776;2024-03-23T11:48:19;4.68;;;2.10;;
38427;SDS011;24211;49.980;19.776;2024-03-23T11:50:50;3.58;;;1.95;;
38427;SDS011;24211;49.980;19.776;2024-03-23T11:53:22;5.22;;;2.13;;
38427;SDS011;24211;49.980;19.776;2024-03-23T11:55:50;4.20;;;2.10;;
38427;SDS011;24211;49.980;19.776;2024-03-23T11:58:26;4.80;;;2.13;;
38427;SDS011;24211;49.980;19.776;2024-03-23T12:03:29;3.80;;;1.90;;
38427;SDS011;24211;49.980;19.776;2024-03-23T12:06:01;4.07;;;1.88;;
38427;SDS011;24211;49.980;19.776;2024-03-23T12:08:31;3.85;;;1.80;;
38427;SDS011;24211;49.980;19.776;2024-03-23T12:11:09;3.70;;;1.75;;
38427;SDS011;24211;49.980;19.776;2024-03-23T12:13:43;4.65;;;1.80;;
38427;SDS011;24211;49.980;19.776;2024-03-23T12:16:12;4.53;;;1.70;;
38427;SDS011;24211;49.980;19.776;2024-03-23T12:18:43;3.78;;;1.80;;
38427;SDS011;24211;49.980;19.776;2024-03-23T12:21:11;4.25;;;1.88;;
38427;SDS011;24211;49.980;19.776;2024-03-23T12:23:41;3.35;;;1.77;;
38427;SDS011;24211;49.980;19.776;2024-03-23T12:26:10;3.75;;;1.60;;
38427;SDS011;24211;49.980;19.776;2024-03-23T12:28:38;3.80;;;1.90;;
38427;SDS011;24211;49.980;19.776;2024-03-23T12:31:04;4.35;;;2.00;;
38427;SDS011;24211;49.980;19.776;2024-03-23T12:33:31;3.00;;;1.50;;
38427;SDS011;24211;49.980;19.776;2024-03-23T12:35:57;3.33;;;1.65;;
38427;SDS011;24211;49.980;19.776;2024-03-23T12:38:25;4.18;;;1.80;;
38427;SDS011;24211;49.980;19.776;2024-03-23T12:40:51;4.20;;;1.88;;
38427;SDS011;24211;49.980;19.776;2024-03-23T12:43:18;3.67;;;1.73;;
38427;SDS011;24211;49.980;19.776;2024-03-23T12:45:48;3.58;;;1.67;;
38427;SDS011;24211;49.980;19.776;2024-03-23T12:48:18;3.63;;;1.85;;
38427;SDS011;24211;49.980;19.776;2024-03-23T12:50:44;3.33;;;1.77;;
38427;SDS011;24211;49.980;19.776;2024-03-23T12:53:11;5.55;;;1.90;;
38427;SDS011;24211;49.980;19.776;2024-03-23T12:55:37;4.10;;;1.70;;
38427;SDS011;24211;49.980;19.776;2024-03-23T12:58:04;3.17;;;1.70;;
38427;SDS011;24211;49.980;19.776;2024-03-23T13:00:30;3.05;;;1.40;;
38427;SDS011;24211;49.980;19.776;2024-03-23T13:02:57;3.67;;;1.40;;
38427;SDS011;24211;49.980;19.776;2024-03-23T13:05:23;3.50;;;1.40;;
38427;SDS011;24211;49.980;19.776;2024-03-23T13:07:50;3.20;;;1.40;;
38427;SDS011;24211;49.980;19.776;2024-03-23T13:10:16;5.70;;;1.48;;
38427;SDS011;24211;49.980;19.776;2024-03-23T13:12:43;4.68;;;1.40;;
38427;SDS011;24211;49.980;19.776;2024-03-23T13:15:09;2.53;;;1.25;;
38427;SDS011;24211;49.980;19.776;2024-03-23T13:17:36;3.85;;;1.40;;
38427;SDS011;24211;49.980;19.776;2024-03-23T13:20:02;2.92;;;1.40;;
38427;SDS011;24211;49.980;19.776;2024-03-23T13:22:30;3.17;;;1.40;;
38427;SDS011;24211;49.980;19.776;2024-03-23T13:24:57;3.00;;;1.30;;
38427;SDS011;24211;49.980;19.776;2024-03-23T13:27:23;3.25;;;1.27;;
38427;SDS011;24211;49.980;19.776;2024-03-23T13:29:50;2.80;;;1.30;;
38427;SDS011;24211;49.980;19.776;2024-03-23T13:32:17;2.70;;;1.42;;
38427;SDS011;24211;49.980;19.776;2024-03-23T13:34:44;2.92;;;1.30;;
38427;SDS011;24211;49.980;19.776;2024-03-23T13:37:10;2.10;;;1.20;;
38427;SDS011;24211;49.980;19.776;2024-03-23T13:39:37;1.98;;;1.15;;
38427;SDS011;24211;49.980;19.776;2024-03-23T13:42:03;2.58;;;1.23;;
38427;SDS011;24211;49.980;19.776;2024-03-23T13:44:30;3.03;;;1.40;;
38427;SDS011;24211;49.980;19.776;2024-03-23T13:46:56;5.13;;;1.48;;
38427;SDS011;24211;49.980;19.776;2024-03-23T13:49:27;3.47;;;1.20;;
38427;SDS011;24211;49.980;19.776;2024-03-23T13:51:57;3.10;;;1.50;;
38427;SDS011;24211;49.980;19.776;2024-03-23T13:54:27;2.67;;;1.17;;
38427;SDS011;24211;49.980;19.776;2024-03-23T13:56:54;2.53;;;1.10;;
38427;SDS011;24211;49.980;19.776;2024-03-23T13:59:21;2.60;;;1.40;;
38427;SDS011;24211;49.980;19.776;2024-03-23T14:01:49;4.03;;;1.60;;
38427;SDS011;24211;49.980;19.776;2024-03-23T14:04:17;5.40;;;1.60;;
38427;SDS011;24211;49.980;19.776;2024-03-23T14:06:46;4.60;;;1.83;;
38427;SDS011;24211;49.980;19.776;2024-03-23T14:09:13;3.63;;;1.65;;
38427;SDS011;24211;49.980;19.776;2024-03-23T14:11:41;3.47;;;1.40;;
38427;SDS011;24211;49.980;19.776;2024-03-23T14:14:09;5.30;;;1.60;;
38427;SDS011;24211;49.980;19.776;2024-03-23T14:16:36;3.13;;;1.27;;
38427;SDS011;24211;49.980;19.776;2024-03-23T14:19:02;3.85;;;1.40;;
38427;SDS011;24211;49.980;19.776;2024-03-23T14:21:31;4.63;;;1.60;;
38427;SDS011;24211;49.980;19.776;2024-03-23T14:23:57;5.75;;;1.70;;
38427;SDS011;24211;49.980;19.776;2024-03-23T14:26:24;3.78;;;1.40;;
38427;SDS011;24211;49.980;19.776;2024-03-23T14:28:50;5.07;;;1.50;;
38427;SDS011;24211;49.980;19.776;2024-03-23T14:31:17;2.83;;;1.45;;
38427;SDS011;24211;49.980;19.776;2024-03-23T14:33:43;6.65;;;1.50;;
38427;SDS011;24211;49.980;19.776;2024-03-23T14:36:13;9.13;;;1.17;;
38427;SDS011;24211;49.980;19.776;2024-03-23T14:38:40;4.20;;;0.90;;
38427;SDS011;24211;49.980;19.776;2024-03-23T14:41:06;2.05;;;0.80;;
38427;SDS011;24211;49.980;19.776;2024-03-23T14:43:33;1.55;;;0.40;;
38427;SDS011;24211;49.980;19.776;2024-03-23T14:46:12;2.30;;;0.40;;
38427;SDS011;24211;49.980;19.776;2024-03-23T14:48:42;2.65;;;0.80;;
38427;SDS011;24211;49.980;19.776;2024-03-23T14:51:10;0.38;;;0.20;;
38427;SDS011;24211;49.980;19.776;2024-03-23T14:53:38;1.25;;;0.50;;
38427;SDS011;24211;49.980;19.776;2024-03-23T14:56:08;2.33;;;0.70;;
38427;SDS011;24211;49.980;19.776;2024-03-23T14:58:37;0.70;;;0.40;;
38427;SDS011;24211;49.980;19.776;2024-03-23T15:01:04;2.05;;;0.68;;
38427;SDS011;24211;49.980;19.776;2024-03-23T15:03:38;1.35;;;0.50;;
38427;SDS011;24211;49.980;19.776;2024-03-23T15:06:06;1.83;;;0.52;;
38427;SDS011;24211;49.980;19.776;2024-03-23T15:08:34;2.55;;;0.95;;
38427;SDS011;24211;49.980;19.776;2024-03-23T15:11:02;3.78;;;0.80;;
38427;SDS011;24211;49.980;19.776;2024-03-23T15:13:33;1.50;;;0.80;;
38427;SDS011;24211;49.980;19.776;2024-03-23T15:16:04;1.70;;;0.77;;
38427;SDS011;24211;49.980;19.776;2024-03-23T15:18:32;2.75;;;0.82;;
38427;SDS011;24211;49.980;19.776;2024-03-23T15:20:59;3.40;;;0.90;;
38427;SDS011;24211;49.980;19.776;2024-03-23T15:23:31;1.88;;;0.80;;
38427;SDS011;24211;49.980;19.776;2024-03-23T15:25:58;3.42;;;0.85;;
38427;SDS011;24211;49.980;19.776;2024-03-23T15:28:27;3.15;;;1.17;;
38427;SDS011;24211;49.980;19.776;2024-03-23T15:31:08;3.60;;;1.35;;